PIMOHWEATHER Station Historical Data
Daily Summary for November 26, 2020 Units:  Metric    English   Both
Daily Weekly Monthly Yearly
  High: Low: Average:
Temperature: 32.0 °C 25.0 °C 28.5 °C
Dew Point: 23.0 °C 19.0 °C 21 °C
Humidity: 84% 54% 65%
Wind Speed: 40km/h 0km/h 17km/h
Wind Gust: 61km/h - -
Wind- - ENE
Pressure: 1015.6 hPa 1011.4 hPa -
Precipitation: 0.89 mm    
 
 
Tabular Data for November 26, 2020
Time Temperature Dew Point Pressure Wind Wind Speed Wind Gust Humidity Rainfall Rate (Hourly) solar
00:04 26.0 °C 21.0 °C 1014.7 hPa NNE 4 km/h 4 km/h 71% 0.00 mm 0.00 W/m2
00:09 26.0 °C 21.0 °C 1014.6 hPa NE 9 km/h 12 km/h 71% 0.00 mm 0.00 W/m2
00:14 26.0 °C 21.0 °C 1014.6 hPa NE 5 km/h 8 km/h 71% 0.00 mm 0.00 W/m2
00:19 26.0 °C 21.0 °C 1014.6 hPa NE 6 km/h 8 km/h 71% 0.00 mm 0.00 W/m2
00:24 26.0 °C 21.0 °C 1014.4 hPa NE 10 km/h 12 km/h 71% 0.00 mm 0.00 W/m2
00:29 26.0 °C 21.0 °C 1014.5 hPa NNE 1 km/h 4 km/h 71% 0.00 mm 0.00 W/m2
00:34 26.0 °C 21.0 °C 1014.4 hPa NE 9 km/h 12 km/h 71% 0.00 mm 0.00 W/m2
00:39 26.0 °C 21.0 °C 1014.3 hPa NNE 4 km/h 4 km/h 71% 0.00 mm 0.00 W/m2
00:44 26.0 °C 21.0 °C 1014.4 hPa NNE 4 km/h 4 km/h 71% 0.00 mm 0.00 W/m2
00:49 26.0 °C 21.0 °C 1014.3 hPa ENE 12 km/h 12 km/h 71% 0.00 mm 0.00 W/m2
00:54 26.0 °C 21.0 °C 1014.2 hPa NNE 5 km/h 8 km/h 71% 0.00 mm 0.00 W/m2
00:59 26.0 °C 21.0 °C 1014.3 hPa NE 3 km/h 4 km/h 71% 0.00 mm 0.00 W/m2
01:04 26.0 °C 21.0 °C 1014.1 hPa NE 7 km/h 8 km/h 71% 0.00 mm 0.00 W/m2
01:09 26.0 °C 21.0 °C 1014.3 hPa NE 5 km/h 8 km/h 71% 0.00 mm 0.00 W/m2
01:14 26.0 °C 21.0 °C 1014.0 hPa NNE 3 km/h 4 km/h 70% 0.00 mm 0.00 W/m2
01:19 26.0 °C 21.0 °C 1014.0 hPa NE 9 km/h 12 km/h 70% 0.00 mm 0.00 W/m2
01:24 26.0 °C 21.0 °C 1014.1 hPa NNE 5 km/h 8 km/h 70% 0.00 mm 0.00 W/m2
01:29 26.0 °C 21.0 °C 1014.1 hPa ENE 9 km/h 12 km/h 70% 0.00 mm 0.00 W/m2
01:34 26.0 °C 21.0 °C 1013.8 hPa NNE 5 km/h 8 km/h 70% 0.00 mm 0.00 W/m2
01:39 26.0 °C 21.0 °C 1013.9 hPa NE 4 km/h 8 km/h 70% 0.00 mm 0.00 W/m2
01:44 26.0 °C 21.0 °C 1013.8 hPa NE 5 km/h 8 km/h 70% 0.00 mm 0.00 W/m2
01:49 26.0 °C 21.0 °C 1013.7 hPa NNE 4 km/h 4 km/h 70% 0.00 mm 0.00 W/m2
01:54 26.0 °C 20.0 °C 1013.6 hPa North 4 km/h 4 km/h 70% 0.00 mm 0.00 W/m2
01:59 26.0 °C 21.0 °C 1013.6 hPa ENE 8 km/h 8 km/h 70% 0.00 mm 0.00 W/m2
02:04 26.0 °C 20.0 °C 1013.5 hPa NNE 4 km/h 4 km/h 70% 0.00 mm 0.00 W/m2
02:09 26.0 °C 20.0 °C 1013.4 hPa NNE 2 km/h 4 km/h 70% 0.00 mm 0.00 W/m2
02:14 26.0 °C 20.0 °C 1013.3 hPa NNE 4 km/h 8 km/h 70% 0.00 mm 0.00 W/m2
02:19 26.0 °C 20.0 °C 1013.4 hPa North 8 km/h 8 km/h 70% 0.00 mm 0.00 W/m2
02:24 26.0 °C 21.0 °C 1013.2 hPa NNW 8 km/h 8 km/h 71% 0.00 mm 0.00 W/m2
02:29 26.0 °C 21.0 °C 1013.3 hPa NNW 8 km/h 8 km/h 72% 0.00 mm 0.00 W/m2
02:34 26.0 °C 20.0 °C 1013.2 hPa North 5 km/h 8 km/h 72% 0.00 mm 0.00 W/m2
02:39 26.0 °C 20.0 °C 1013.0 hPa North 5 km/h 8 km/h 72% 0.00 mm 0.00 W/m2
02:44 26.0 °C 20.0 °C 1013.1 hPa North 4 km/h 4 km/h 72% 0.00 mm 0.00 W/m2
02:49 26.0 °C 20.0 °C 1013.1 hPa North 5 km/h 8 km/h 72% 0.00 mm 0.00 W/m2
02:54 26.0 °C 20.0 °C 1013.1 hPa North 1 km/h 4 km/h 72% 0.00 mm 0.00 W/m2
02:59 26.0 °C 20.0 °C 1013.1 hPa North 5 km/h 8 km/h 72% 0.00 mm 0.00 W/m2
03:04 25.0 °C 20.0 °C 1013.0 hPa Calm     72% 0.00 mm 0.00 W/m2
03:09 25.0 °C 20.0 °C 1013.0 hPa North 4 km/h 8 km/h 72% 0.00 mm 0.00 W/m2
03:14 26.0 °C 20.0 °C 1012.8 hPa North 9 km/h 12 km/h 71% 0.00 mm 0.00 W/m2
03:19 26.0 °C 20.0 °C 1013.0 hPa North 4 km/h 4 km/h 72% 0.00 mm 0.00 W/m2
03:24 25.0 °C 20.0 °C 1012.9 hPa NNW 3 km/h 4 km/h 72% 0.00 mm 0.00 W/m2
03:29 25.0 °C 20.0 °C 1013.0 hPa North 4 km/h 4 km/h 72% 0.00 mm 0.00 W/m2
03:34 25.0 °C 20.0 °C 1012.8 hPa Calm     72% 0.00 mm 0.00 W/m2
03:39 25.0 °C 20.0 °C 1012.8 hPa North 3 km/h 4 km/h 72% 0.00 mm 0.00 W/m2
03:44 25.0 °C 20.0 °C 1012.8 hPa North 4 km/h 4 km/h 72% 0.00 mm 0.00 W/m2
03:49 25.0 °C 20.0 °C 1012.8 hPa North 4 km/h 4 km/h 72% 0.00 mm 0.00 W/m2
03:54 25.0 °C 20.0 °C 1012.8 hPa North 5 km/h 8 km/h 72% 0.00 mm 0.00 W/m2
03:59 25.0 °C 20.0 °C 1012.7 hPa North 7 km/h 12 km/h 71% 0.00 mm 0.00 W/m2
04:04 25.0 °C 20.0 °C 1012.7 hPa North 8 km/h 8 km/h 71% 0.00 mm 0.00 W/m2
04:09 25.0 °C 20.0 °C 1012.7 hPa North 8 km/h 12 km/h 71% 0.00 mm 0.00 W/m2
04:14 25.0 °C 19.0 °C 1012.7 hPa North 9 km/h 12 km/h 71% 0.00 mm 0.00 W/m2
04:19 25.0 °C 19.0 °C 1012.8 hPa North 9 km/h 12 km/h 71% 0.00 mm 0.00 W/m2
04:24 25.0 °C 19.0 °C 1012.7 hPa North 9 km/h 16 km/h 71% 0.00 mm 0.00 W/m2
04:29 25.0 °C 19.0 °C 1012.6 hPa North 10 km/h 12 km/h 71% 0.00 mm 0.00 W/m2
04:34 25.0 °C 19.0 °C 1012.8 hPa North 10 km/h 12 km/h 71% 0.00 mm 0.00 W/m2
04:39 25.0 °C 19.0 °C 1012.8 hPa North 10 km/h 12 km/h 71% 0.00 mm 0.00 W/m2
04:44 25.0 °C 19.0 °C 1012.8 hPa North 13 km/h 16 km/h 71% 0.00 mm 0.00 W/m2
04:49 25.0 °C 19.0 °C 1013.0 hPa North 10 km/h 12 km/h 70% 0.00 mm 0.00 W/m2
04:54 25.0 °C 19.0 °C 1012.8 hPa NNE 7 km/h 12 km/h 70% 0.00 mm 0.00 W/m2
05:04 25.0 °C 19.0 °C 1012.9 hPa North 10 km/h 12 km/h 70% 0.00 mm 0.00 W/m2
05:09 25.0 °C 19.0 °C 1012.9 hPa North 9 km/h 12 km/h 69% 0.00 mm 0.00 W/m2
05:14 26.0 °C 19.0 °C 1012.9 hPa North 19 km/h 24 km/h 69% 0.00 mm 0.00 W/m2
05:19 26.0 °C 19.0 °C 1013.0 hPa North 14 km/h 16 km/h 69% 0.00 mm 0.00 W/m2
05:24 26.0 °C 19.0 °C 1013.0 hPa North 16 km/h 20 km/h 68% 0.00 mm 0.00 W/m2
05:29 26.0 °C 19.0 °C 1013.2 hPa North 13 km/h 16 km/h 68% 0.00 mm 0.00 W/m2
05:34 26.0 °C 19.0 °C 1013.2 hPa North 13 km/h 16 km/h 68% 0.00 mm 0.00 W/m2
05:39 26.0 °C 19.0 °C 1013.2 hPa North 10 km/h 16 km/h 68% 0.00 mm 0.00 W/m2
05:44 26.0 °C 19.0 °C 1013.3 hPa North 10 km/h 16 km/h 68% 0.00 mm 0.00 W/m2
05:49 26.0 °C 19.0 °C 1013.3 hPa North 10 km/h 12 km/h 68% 0.00 mm 0.00 W/m2
05:54 26.0 °C 19.0 °C 1013.4 hPa North 10 km/h 12 km/h 68% 0.00 mm 0.00 W/m2
05:59 26.0 °C 19.0 °C 1013.4 hPa North 12 km/h 20 km/h 68% 0.00 mm 0.00 W/m2
06:04 26.0 °C 19.0 °C 1013.5 hPa North 13 km/h 20 km/h 68% 0.00 mm 1.71 W/m2
06:09 26.0 °C 19.0 °C 1013.5 hPa North 15 km/h 24 km/h 68% 0.00 mm 3.79 W/m2
06:14 26.0 °C 19.0 °C 1013.8 hPa North 13 km/h 16 km/h 68% 0.00 mm 5.14 W/m2
06:19 26.0 °C 19.0 °C 1013.8 hPa North 14 km/h 20 km/h 68% 0.00 mm 5.63 W/m2
06:24 26.0 °C 19.0 °C 1013.7 hPa North 15 km/h 20 km/h 68% 0.00 mm 9.05 W/m2
06:29 26.0 °C 19.0 °C 1013.8 hPa North 15 km/h 20 km/h 68% 0.00 mm 18.60 W/m2
06:34 26.0 °C 19.0 °C 1014.0 hPa North 20 km/h 20 km/h 68% 0.00 mm 22.87 W/m2
06:39 26.0 °C 19.0 °C 1013.9 hPa North 10 km/h 16 km/h 67% 0.00 mm 22.87 W/m2
06:44 26.0 °C 19.0 °C 1013.9 hPa North 15 km/h 20 km/h 67% 0.00 mm 32.90 W/m2
06:49 26.0 °C 19.0 °C 1014.1 hPa North 16 km/h 24 km/h 67% 0.00 mm 32.42 W/m2
06:54 26.0 °C 19.0 °C 1014.1 hPa North 14 km/h 20 km/h 67% 0.00 mm 32.05 W/m2
06:59 26.0 °C 19.0 °C 1014.0 hPa North 17 km/h 24 km/h 67% 0.00 mm 41.96 W/m2
07:04 26.0 °C 19.0 °C 1014.1 hPa North 19 km/h 24 km/h 66% 0.00 mm 41.59 W/m2
07:09 26.0 °C 20.0 °C 1014.2 hPa North 14 km/h 16 km/h 66% 0.00 mm 48.93 W/m2
07:14 26.0 °C 20.0 °C 1014.0 hPa North 15 km/h 20 km/h 66% 0.00 mm 78.05 W/m2
07:19 27.0 °C 19.0 °C 1014.3 hPa NNE 14 km/h 24 km/h 65% 0.00 mm 70.22 W/m2
07:24 27.0 °C 19.0 °C 1014.4 hPa NNE 15 km/h 24 km/h 64% 0.00 mm 65.94 W/m2
07:29 27.0 °C 20.0 °C 1014.5 hPa NNE 14 km/h 16 km/h 64% 0.00 mm 73.65 W/m2
07:34 27.0 °C 20.0 °C 1014.5 hPa North 15 km/h 20 km/h 64% 0.00 mm 77.19 W/m2
07:39 27.0 °C 20.0 °C 1014.6 hPa North 14 km/h 16 km/h 64% 0.00 mm 81.97 W/m2
07:44 27.0 °C 20.0 °C 1014.5 hPa North 10 km/h 12 km/h 63% 0.00 mm 81.10 W/m2
07:49 27.0 °C 20.0 °C 1014.9 hPa NNE 9 km/h 16 km/h 63% 0.00 mm 78.41 W/m2
07:54 27.0 °C 20.0 °C 1014.9 hPa North 13 km/h 20 km/h 63% 0.00 mm 70.22 W/m2
07:59 27.0 °C 19.0 °C 1014.9 hPa North 15 km/h 24 km/h 62% 0.00 mm 81.97 W/m2
08:04 27.0 °C 20.0 °C 1015.2 hPa NNE 17 km/h 24 km/h 62% 0.00 mm 94.07 W/m2
08:09 27.0 °C 20.0 °C 1015.1 hPa NNE 12 km/h 16 km/h 62% 0.00 mm 118.78 W/m2
08:14 27.0 °C 20.0 °C 1015.2 hPa North 15 km/h 20 km/h 62% 0.00 mm 130.90 W/m2
08:19 28.0 °C 20.0 °C 1015.2 hPa North 18 km/h 24 km/h 62% 0.00 mm 307.06 W/m2
08:24 28.0 °C 20.0 °C 1015.2 hPa NNE 18 km/h 28 km/h 62% 0.00 mm 353.06 W/m2
08:29 28.0 °C 20.0 °C 1015.2 hPa North 19 km/h 28 km/h 61% 0.00 mm 265.83 W/m2
08:34 28.0 °C 20.0 °C 1015.4 hPa NNE 21 km/h 36 km/h 60% 0.00 mm 202.59 W/m2
08:39 29.0 °C 20.0 °C 1015.3 hPa NNE 26 km/h 32 km/h 60% 0.00 mm 486.28 W/m2
08:44 29.0 °C 20.0 °C 1015.4 hPa North 22 km/h 32 km/h 59% 0.00 mm 514.42 W/m2
08:49 29.0 °C 20.0 °C 1015.4 hPa NNE 20 km/h 32 km/h 58% 0.00 mm 515.28 W/m2
08:54 29.0 °C 20.0 °C 1015.4 hPa North 35 km/h 53 km/h 58% 0.00 mm 518.33 W/m2
08:59 29.0 °C 20.0 °C 1015.3 hPa NNE 29 km/h 40 km/h 58% 0.00 mm 552.23 W/m2
09:04 29.0 °C 20.0 °C 1015.3 hPa NNE 21 km/h 32 km/h 57% 0.00 mm 604.21 W/m2
09:09 29.0 °C 20.0 °C 1015.5 hPa NE 34 km/h 48 km/h 57% 0.00 mm 581.70 W/m2
09:14 29.0 °C 20.0 °C 1015.6 hPa NE 31 km/h 44 km/h 57% 0.00 mm 603.36 W/m2
09:19 29.0 °C 20.0 °C 1015.5 hPa NNE 17 km/h 32 km/h 58% 0.00 mm 328.35 W/m2
09:24 30.0 °C 20.0 °C 1015.4 hPa NNE 26 km/h 44 km/h 58% 0.00 mm 647.16 W/m2
09:29 30.0 °C 20.0 °C 1015.4 hPa NNE 24 km/h 36 km/h 56% 0.00 mm 638.47 W/m2
09:34 30.0 °C 20.0 °C 1015.3 hPa North 20 km/h 28 km/h 56% 0.00 mm 608.99 W/m2
09:39 30.0 °C 20.0 °C 1015.4 hPa NNE 21 km/h 28 km/h 56% 0.00 mm 586.48 W/m2
09:44 30.0 °C 20.0 °C 1015.4 hPa NE 17 km/h 24 km/h 56% 0.00 mm 641.53 W/m2
09:49 30.0 °C 20.0 °C 1015.3 hPa NE 21 km/h 24 km/h 55% 0.00 mm 665.38 W/m2
09:54 30.0 °C 21.0 °C 1015.2 hPa North 19 km/h 24 km/h 56% 0.00 mm 671.50 W/m2
09:59 31.0 °C 21.0 °C 1015.2 hPa NNE 21 km/h 32 km/h 55% 0.00 mm 643.73 W/m2
10:04 31.0 °C 21.0 °C 1015.2 hPa NNE 19 km/h 32 km/h 55% 0.00 mm 632.84 W/m2
10:09 31.0 °C 21.0 °C 1015.0 hPa NNE 24 km/h 36 km/h 55% 0.00 mm 649.36 W/m2
10:14 31.0 °C 21.0 °C 1015.0 hPa NNE 27 km/h 36 km/h 55% 0.00 mm 681.04 W/m2
10:19 31.0 °C 21.0 °C 1014.9 hPa North 25 km/h 32 km/h 54% 0.00 mm 670.16 W/m2
10:24 31.0 °C 21.0 °C 1015.0 hPa NNE 23 km/h 44 km/h 55% 0.00 mm 633.70 W/m2
10:29 31.0 °C 21.0 °C 1015.0 hPa NNE 22 km/h 40 km/h 55% 0.00 mm 660.62 W/m2
10:34 31.0 °C 21.0 °C 1014.7 hPa NNE 22 km/h 44 km/h 55% 0.00 mm 646.79 W/m2
10:39 31.0 °C 21.0 °C 1014.7 hPa North 25 km/h 32 km/h 55% 0.00 mm 608.62 W/m2
10:44 31.0 °C 21.0 °C 1014.4 hPa NE 23 km/h 28 km/h 55% 0.00 mm 657.55 W/m2
10:49 31.0 °C 21.0 °C 1014.6 hPa NE 23 km/h 32 km/h 56% 0.00 mm 671.01 W/m2
10:54 31.0 °C 21.0 °C 1014.6 hPa North 19 km/h 28 km/h 56% 0.00 mm 711.87 W/m2
10:59 32.0 °C 21.0 °C 1014.3 hPa NE 24 km/h 36 km/h 54% 0.00 mm 826.38 W/m2
11:04 31.0 °C 21.0 °C 1014.3 hPa North 27 km/h 36 km/h 55% 0.00 mm 742.58 W/m2
11:09 31.0 °C 21.0 °C 1014.4 hPa NE 34 km/h 44 km/h 55% 0.00 mm 813.78 W/m2
11:14 31.0 °C 21.0 °C 1014.2 hPa NNE 14 km/h 32 km/h 55% 0.00 mm 396.49 W/m2
11:19 31.0 °C 21.0 °C 1014.2 hPa NNE 22 km/h 36 km/h 56% 0.00 mm 294.46 W/m2
11:24 31.0 °C 21.0 °C 1014.2 hPa NE 19 km/h 28 km/h 57% 0.00 mm 500.11 W/m2
11:29 31.0 °C 21.0 °C 1014.3 hPa NE 18 km/h 24 km/h 57% 0.00 mm 274.15 W/m2
11:34 31.0 °C 21.0 °C 1014.0 hPa East 32 km/h 40 km/h 58% 0.00 mm 206.01 W/m2
11:39 30.0 °C 21.0 °C 1013.9 hPa NE 29 km/h 44 km/h 58% 0.00 mm 293.24 W/m2
11:44 31.0 °C 21.0 °C 1013.9 hPa NNE 15 km/h 24 km/h 58% 0.00 mm 739.64 W/m2
11:49 31.0 °C 21.0 °C 1013.9 hPa NNE 26 km/h 40 km/h 57% 0.00 mm 718.36 W/m2
11:54 31.0 °C 22.0 °C 1013.6 hPa North 25 km/h 40 km/h 57% 0.00 mm 683.24 W/m2
11:59 31.0 °C 22.0 °C 1013.5 hPa North 24 km/h 36 km/h 58% 0.00 mm 686.18 W/m2
12:04 32.0 °C 22.0 °C 1013.5 hPa NE 20 km/h 32 km/h 57% 0.00 mm 689.24 W/m2
12:09 32.0 °C 22.0 °C 1013.3 hPa ENE 34 km/h 40 km/h 56% 0.00 mm 741.72 W/m2
12:14 32.0 °C 22.0 °C 1013.2 hPa NNE 25 km/h 40 km/h 56% 0.00 mm 773.90 W/m2
12:19 32.0 °C 22.0 °C 1013.2 hPa North 17 km/h 24 km/h 56% 0.00 mm 821.97 W/m2
12:24 32.0 °C 22.0 °C 1013.2 hPa NE 30 km/h 40 km/h 56% 0.00 mm 838.12 W/m2
12:29 32.0 °C 22.0 °C 1013.1 hPa East 35 km/h 44 km/h 57% 0.00 mm 767.78 W/m2
12:34 31.0 °C 22.0 °C 1012.9 hPa NNE 27 km/h 36 km/h 57% 0.00 mm 832.38 W/m2
12:39 31.0 °C 22.0 °C 1012.9 hPa NNE 26 km/h 40 km/h 57% 0.00 mm 840.21 W/m2
12:44 31.0 °C 22.0 °C 1012.9 hPa NNE 22 km/h 36 km/h 57% 0.00 mm 916.54 W/m2
12:49 32.0 °C 22.0 °C 1012.7 hPa ENE 18 km/h 32 km/h 56% 0.00 mm 817.70 W/m2
12:54 31.0 °C 22.0 °C 1012.6 hPa North 20 km/h 28 km/h 57% 0.00 mm 700.50 W/m2
12:59 32.0 °C 22.0 °C 1012.5 hPa NNE 21 km/h 32 km/h 57% 0.00 mm 835.07 W/m2
13:04 32.0 °C 22.0 °C 1012.3 hPa NNE 20 km/h 24 km/h 57% 0.00 mm 835.07 W/m2
13:09 32.0 °C 22.0 °C 1012.3 hPa North 21 km/h 28 km/h 56% 0.00 mm 760.81 W/m2
13:14 32.0 °C 22.0 °C 1012.1 hPa North 18 km/h 28 km/h 56% 0.00 mm 850.60 W/m2
13:19 32.0 °C 22.0 °C 1012.3 hPa NNE 19 km/h 36 km/h 56% 0.00 mm 840.69 W/m2
13:24 32.0 °C 22.0 °C 1012.0 hPa NE 31 km/h 40 km/h 56% 0.00 mm 829.80 W/m2
13:29 32.0 °C 22.0 °C 1011.9 hPa NNE 29 km/h 44 km/h 57% 0.00 mm 383.03 W/m2
13:34 32.0 °C 22.0 °C 1012.0 hPa NNE 27 km/h 40 km/h 56% 0.00 mm 427.69 W/m2
13:39 32.0 °C 22.0 °C 1012.0 hPa North 20 km/h 28 km/h 56% 0.00 mm 244.67 W/m2
13:44 32.0 °C 22.0 °C 1011.9 hPa NNE 14 km/h 24 km/h 57% 0.00 mm 547.45 W/m2
13:49 32.0 °C 22.0 °C 1011.9 hPa NE 14 km/h 24 km/h 57% 0.00 mm 660.62 W/m2
13:54 32.0 °C 22.0 °C 1011.7 hPa NE 17 km/h 24 km/h 57% 0.00 mm 572.53 W/m2
13:59 32.0 °C 22.0 °C 1011.7 hPa North 24 km/h 32 km/h 56% 0.00 mm 566.91 W/m2
14:04 32.0 °C 22.0 °C 1011.6 hPa NNE 18 km/h 28 km/h 55% 0.00 mm 554.30 W/m2
14:09 32.0 °C 22.0 °C 1011.5 hPa NNE 23 km/h 28 km/h 56% 0.00 mm 589.05 W/m2
14:14 32.0 °C 22.0 °C 1011.5 hPa North 29 km/h 44 km/h 56% 0.00 mm 547.45 W/m2
14:19 32.0 °C 22.0 °C 1011.5 hPa North 18 km/h 24 km/h 56% 0.00 mm 519.68 W/m2
14:24 32.0 °C 22.0 °C 1011.6 hPa North 24 km/h 40 km/h 55% 0.00 mm 487.14 W/m2
14:29 32.0 °C 22.0 °C 1011.5 hPa NNE 25 km/h 32 km/h 55% 0.00 mm 503.65 W/m2
14:34 32.0 °C 22.0 °C 1011.7 hPa NNE 25 km/h 36 km/h 55% 0.00 mm 484.45 W/m2
14:39 32.0 °C 22.0 °C 1011.5 hPa NNE 15 km/h 20 km/h 56% 0.00 mm 434.17 W/m2
14:44 32.0 °C 22.0 °C 1011.6 hPa North 18 km/h 24 km/h 56% 0.00 mm 427.20 W/m2
14:49 32.0 °C 22.0 °C 1011.7 hPa NE 21 km/h 28 km/h 56% 0.00 mm 427.20 W/m2
14:54 32.0 °C 22.0 °C 1011.5 hPa North 29 km/h 36 km/h 57% 0.00 mm 406.03 W/m2
14:59 32.0 °C 22.0 °C 1011.5 hPa North 29 km/h 36 km/h 56% 0.00 mm 379.12 W/m2
15:04 32.0 °C 22.0 °C 1011.5 hPa North 22 km/h 36 km/h 57% 0.00 mm 355.63 W/m2
15:09 32.0 °C 22.0 °C 1011.4 hPa NNE 24 km/h 40 km/h 57% 0.00 mm 342.17 W/m2
15:14 32.0 °C 22.0 °C 1011.5 hPa NE 19 km/h 32 km/h 58% 0.00 mm 168.70 W/m2
15:19 31.0 °C 22.0 °C 1011.4 hPa North 21 km/h 32 km/h 58% 0.00 mm 87.59 W/m2
15:24 32.0 °C 22.0 °C 1011.4 hPa NE 16 km/h 28 km/h 58% 0.00 mm 153.90 W/m2
15:29 32.0 °C 22.0 °C 1011.5 hPa NE 23 km/h 28 km/h 57% 0.00 mm 146.56 W/m2
15:34 32.0 °C 22.0 °C 1011.5 hPa NE 21 km/h 32 km/h 58% 0.00 mm 121.36 W/m2
15:39 32.0 °C 22.0 °C 1011.5 hPa North 20 km/h 32 km/h 57% 0.00 mm 124.90 W/m2
15:44 32.0 °C 22.0 °C 1011.4 hPa NNE 21 km/h 32 km/h 57% 0.00 mm 150.96 W/m2
15:49 32.0 °C 22.0 °C 1011.5 hPa NNE 14 km/h 36 km/h 57% 0.00 mm 131.88 W/m2
15:54 32.0 °C 22.0 °C 1011.5 hPa NE 21 km/h 28 km/h 57% 0.00 mm 103.61 W/m2
15:59 31.0 °C 22.0 °C 1011.8 hPa NE 20 km/h 28 km/h 58% 0.00 mm 104.10 W/m2
16:04 31.0 °C 22.0 °C 1011.8 hPa North 28 km/h 40 km/h 58% 0.00 mm 71.93 W/m2
16:09 31.0 °C 22.0 °C 1011.7 hPa NNE 22 km/h 36 km/h 58% 0.00 mm 65.45 W/m2
16:14 31.0 °C 22.0 °C 1011.8 hPa NE 24 km/h 32 km/h 59% 0.00 mm 66.80 W/m2
16:19 31.0 °C 22.0 °C 1011.7 hPa NE 24 km/h 40 km/h 59% 0.00 mm 62.02 W/m2
16:24 31.0 °C 22.0 °C 1011.9 hPa NE 28 km/h 40 km/h 59% 0.00 mm 64.10 W/m2
16:29 31.0 °C 22.0 °C 1011.7 hPa NE 17 km/h 28 km/h 60% 0.00 mm 51.50 W/m2
16:34 31.0 °C 22.0 °C 1011.8 hPa ENE 18 km/h 24 km/h 60% 0.00 mm 48.56 W/m2
16:39 31.0 °C 22.0 °C 1011.8 hPa NE 20 km/h 28 km/h 60% 0.00 mm 40.24 W/m2
16:44 30.0 °C 22.0 °C 1011.9 hPa NE 24 km/h 28 km/h 60% 0.00 mm 32.90 W/m2
16:49 30.0 °C 22.0 °C 1012.0 hPa NE 25 km/h 32 km/h 60% 0.00 mm 30.34 W/m2
16:54 30.0 °C 22.0 °C 1011.9 hPa East 27 km/h 36 km/h 60% 0.00 mm 30.34 W/m2
16:59 30.0 °C 22.0 °C 1012.0 hPa NNE 18 km/h 28 km/h 60% 0.00 mm 24.71 W/m2
17:04 30.0 °C 22.0 °C 1012.0 hPa NNE 12 km/h 40 km/h 61% 0.00 mm 19.08 W/m2
17:09 30.0 °C 22.0 °C 1012.0 hPa NNE 15 km/h 20 km/h 61% 0.00 mm 12.97 W/m2
17:14 30.0 °C 22.0 °C 1012.2 hPa NNE 22 km/h 28 km/h 61% 0.00 mm 8.56 W/m2
17:19 30.0 °C 22.0 °C 1012.2 hPa ENE 21 km/h 28 km/h 62% 0.00 mm 5.99 W/m2
17:24 30.0 °C 22.0 °C 1012.4 hPa ENE 27 km/h 36 km/h 62% 0.00 mm 2.57 W/m2
17:29 30.0 °C 22.0 °C 1012.4 hPa NE 20 km/h 28 km/h 62% 0.00 mm 0.36 W/m2
17:34 30.0 °C 22.0 °C 1012.3 hPa ENE 27 km/h 40 km/h 62% 0.00 mm 0.00 W/m2
17:39 30.0 °C 21.0 °C 1012.5 hPa ENE 23 km/h 28 km/h 62% 0.00 mm 0.00 W/m2
17:44 29.0 °C 21.0 °C 1012.5 hPa NE 14 km/h 24 km/h 62% 0.00 mm 0.00 W/m2
17:49 29.0 °C 21.0 °C 1012.5 hPa NNE 17 km/h 24 km/h 62% 0.00 mm 0.00 W/m2
17:54 29.0 °C 21.0 °C 1012.5 hPa NNE 17 km/h 32 km/h 62% 0.00 mm 0.00 W/m2
17:59 29.0 °C 21.0 °C 1012.6 hPa NE 11 km/h 24 km/h 62% 0.00 mm 0.00 W/m2
18:04 29.0 °C 21.0 °C 1012.6 hPa ENE 23 km/h 28 km/h 62% 0.00 mm 0.00 W/m2
18:09 29.0 °C 21.0 °C 1012.6 hPa NE 32 km/h 40 km/h 63% 0.00 mm 0.00 W/m2
18:14 29.0 °C 21.0 °C 1012.7 hPa NE 13 km/h 20 km/h 63% 0.00 mm 0.00 W/m2
18:19 29.0 °C 21.0 °C 1012.7 hPa NE 20 km/h 28 km/h 63% 0.00 mm 0.00 W/m2
18:24 29.0 °C 21.0 °C 1012.6 hPa ENE 17 km/h 24 km/h 63% 0.00 mm 0.00 W/m2
18:29 29.0 °C 21.0 °C 1012.7 hPa ENE 15 km/h 32 km/h 63% 0.00 mm 0.00 W/m2
18:34 29.0 °C 22.0 °C 1012.6 hPa ENE 20 km/h 24 km/h 63% 0.00 mm 0.00 W/m2
18:39 29.0 °C 21.0 °C 1012.7 hPa ENE 20 km/h 28 km/h 62% 0.00 mm 0.00 W/m2
18:44 29.0 °C 22.0 °C 1013.0 hPa ENE 16 km/h 24 km/h 63% 0.00 mm 0.00 W/m2
18:49 29.0 °C 21.0 °C 1012.8 hPa ENE 23 km/h 28 km/h 63% 0.00 mm 0.00 W/m2
18:54 29.0 °C 22.0 °C 1013.1 hPa NE 14 km/h 20 km/h 64% 0.00 mm 0.00 W/m2
18:59 29.0 °C 22.0 °C 1013.2 hPa East 29 km/h 32 km/h 64% 0.00 mm 0.00 W/m2
19:04 29.0 °C 22.0 °C 1013.2 hPa ENE 15 km/h 20 km/h 65% 0.00 mm 0.00 W/m2
19:09 29.0 °C 22.0 °C 1013.4 hPa NNE 19 km/h 20 km/h 65% 0.00 mm 0.00 W/m2
19:14 29.0 °C 22.0 °C 1013.3 hPa NE 20 km/h 32 km/h 65% 0.00 mm 0.00 W/m2
19:19 29.0 °C 22.0 °C 1013.3 hPa ENE 26 km/h 36 km/h 66% 0.00 mm 0.00 W/m2
19:24 29.0 °C 22.0 °C 1013.4 hPa NNE 18 km/h 32 km/h 66% 0.00 mm 0.00 W/m2
19:29 29.0 °C 22.0 °C 1013.4 hPa ENE 25 km/h 28 km/h 66% 0.00 mm 0.00 W/m2
19:34 29.0 °C 22.0 °C 1013.5 hPa ENE 26 km/h 32 km/h 66% 0.00 mm 0.00 W/m2
19:39 29.0 °C 22.0 °C 1013.4 hPa NE 14 km/h 24 km/h 66% 0.00 mm 0.00 W/m2
19:44 29.0 °C 22.0 °C 1013.4 hPa NNE 12 km/h 20 km/h 66% 0.00 mm 0.00 W/m2
19:49 29.0 °C 22.0 °C 1013.4 hPa NNE 12 km/h 16 km/h 66% 0.00 mm 0.00 W/m2
19:54 29.0 °C 22.0 °C 1013.4 hPa NE 14 km/h 24 km/h 66% 0.00 mm 0.00 W/m2
19:59 29.0 °C 22.0 °C 1013.5 hPa NE 16 km/h 24 km/h 65% 0.00 mm 0.00 W/m2
20:04 29.0 °C 22.0 °C 1013.4 hPa NE 14 km/h 24 km/h 64% 0.00 mm 0.00 W/m2
20:09 29.0 °C 22.0 °C 1013.4 hPa NE 19 km/h 32 km/h 64% 0.00 mm 0.00 W/m2
20:14 29.0 °C 22.0 °C 1013.5 hPa NE 21 km/h 36 km/h 65% 0.00 mm 0.00 W/m2
20:19 29.0 °C 22.0 °C 1013.7 hPa NNE 17 km/h 28 km/h 65% 0.00 mm 0.00 W/m2
20:24 29.0 °C 22.0 °C 1013.4 hPa NE 14 km/h 24 km/h 65% 0.00 mm 0.00 W/m2
20:29 29.0 °C 22.0 °C 1013.6 hPa NNE 15 km/h 20 km/h 65% 0.00 mm 0.00 W/m2
20:34 29.0 °C 22.0 °C 1013.3 hPa NNE 19 km/h 24 km/h 66% 0.00 mm 0.00 W/m2
20:39 29.0 °C 22.0 °C 1013.5 hPa NNE 17 km/h 28 km/h 66% 0.00 mm 0.00 W/m2
20:44 29.0 °C 22.0 °C 1013.5 hPa NNE 19 km/h 32 km/h 66% 0.00 mm 0.00 W/m2
20:49 29.0 °C 22.0 °C 1013.6 hPa NE 17 km/h 32 km/h 66% 0.00 mm 0.00 W/m2
20:54 29.0 °C 22.0 °C 1013.5 hPa NE 27 km/h 36 km/h 66% 0.00 mm 0.00 W/m2
20:59 29.0 °C 22.0 °C 1013.7 hPa NNE 15 km/h 24 km/h 66% 0.00 mm 0.00 W/m2
21:04 29.0 °C 22.0 °C 1013.6 hPa NNE 15 km/h 20 km/h 66% 0.00 mm 0.00 W/m2
21:09 29.0 °C 22.0 °C 1013.7 hPa NE 15 km/h 24 km/h 67% 0.00 mm 0.00 W/m2
21:14 29.0 °C 22.0 °C 1013.8 hPa NNE 19 km/h 36 km/h 67% 0.00 mm 0.00 W/m2
21:19 29.0 °C 22.0 °C 1013.8 hPa NNE 27 km/h 32 km/h 67% 0.00 mm 0.00 W/m2
21:24 29.0 °C 22.0 °C 1013.5 hPa ENE 27 km/h 44 km/h 67% 0.00 mm 0.00 W/m2
21:29 29.0 °C 22.0 °C 1013.6 hPa NE 17 km/h 32 km/h 67% 0.00 mm 0.00 W/m2
21:34 29.0 °C 22.0 °C 1013.6 hPa NNE 10 km/h 16 km/h 67% 0.00 mm 0.00 W/m2
21:39 29.0 °C 22.0 °C 1013.5 hPa NE 14 km/h 20 km/h 67% 0.00 mm 0.00 W/m2
21:44 29.0 °C 22.0 °C 1013.6 hPa North 18 km/h 24 km/h 67% 0.00 mm 0.00 W/m2
21:49 29.0 °C 22.0 °C 1013.7 hPa NNE 17 km/h 28 km/h 67% 0.00 mm 0.00 W/m2
21:54 29.0 °C 22.0 °C 1013.6 hPa NNE 19 km/h 24 km/h 68% 0.00 mm 0.00 W/m2
21:59 29.0 °C 22.0 °C 1013.7 hPa NNE 22 km/h 36 km/h 68% 0.00 mm 0.00 W/m2
22:04 29.0 °C 22.0 °C 1013.5 hPa NNE 23 km/h 32 km/h 68% 0.00 mm 0.00 W/m2
22:09 29.0 °C 22.0 °C 1013.4 hPa NNE 13 km/h 20 km/h 68% 0.00 mm 0.00 W/m2
22:14 29.0 °C 22.0 °C 1013.6 hPa NNE 14 km/h 24 km/h 68% 0.00 mm 0.00 W/m2
22:19 29.0 °C 22.0 °C 1013.8 hPa NNE 15 km/h 24 km/h 68% 0.00 mm 0.00 W/m2
22:24 29.0 °C 22.0 °C 1013.6 hPa NNE 18 km/h 36 km/h 69% 0.00 mm 0.00 W/m2
22:29 29.0 °C 22.0 °C 1013.8 hPa NNE 27 km/h 36 km/h 70% 0.00 mm 0.00 W/m2
22:34 28.0 °C 23.0 °C 1014.0 hPa North 40 km/h 61 km/h 74% 0.00 mm 0.00 W/m2
22:39 27.0 °C 22.0 °C 1014.1 hPa NNE 32 km/h 40 km/h 78% 0.00 mm 0.00 W/m2
22:44 26.0 °C 22.0 °C 1014.1 hPa NE 24 km/h 36 km/h 81% 1.80 mm 0.00 W/m2
22:49 26.0 °C 22.0 °C 1014.1 hPa NNE 20 km/h 24 km/h 81% 1.80 mm 0.00 W/m2
22:54 26.0 °C 22.0 °C 1013.8 hPa NNE 19 km/h 24 km/h 83% 1.80 mm 0.00 W/m2
22:59 26.0 °C 23.0 °C 1013.8 hPa North 15 km/h 24 km/h 84% 1.80 mm 0.00 W/m2
23:04 25.0 °C 23.0 °C 1013.9 hPa North 21 km/h 28 km/h 84% 1.80 mm 0.00 W/m2
23:09 25.0 °C 22.0 °C 1013.8 hPa North 20 km/h 28 km/h 83% 1.80 mm 0.00 W/m2
23:14 25.0 °C 22.0 °C 1013.7 hPa North 20 km/h 28 km/h 83% 1.80 mm 0.00 W/m2
23:19 25.0 °C 22.0 °C 1013.6 hPa North 17 km/h 24 km/h 83% 1.80 mm 0.00 W/m2
23:24 25.0 °C 22.0 °C 1013.5 hPa North 19 km/h 24 km/h 84% 0.00 mm 0.00 W/m2
23:29 25.0 °C 22.0 °C 1013.5 hPa NNW 18 km/h 28 km/h 83% 0.00 mm 0.00 W/m2
23:34 25.0 °C 22.0 °C 1013.6 hPa NNW 24 km/h 28 km/h 83% 0.00 mm 0.00 W/m2
23:39 25.0 °C 22.0 °C 1013.5 hPa North 21 km/h 28 km/h 84% 0.00 mm 0.00 W/m2
23:44 25.0 °C 22.0 °C 1013.5 hPa North 19 km/h 20 km/h 84% 0.00 mm 0.00 W/m2
23:49 25.0 °C 22.0 °C 1013.2 hPa North 15 km/h 24 km/h 84% 0.00 mm 0.00 W/m2
23:54 25.0 °C 22.0 °C 1013.3 hPa North 21 km/h 24 km/h 84% 0.00 mm 0.00 W/m2
23:59 25.0 °C 22.0 °C 1013.4 hPa North 17 km/h 24 km/h 83% 0.00 mm 0.00 W/m2
PIMOHWEATHER Philippines
Compliments of Weather Underground - 2 mb